sensor_id;sensor_type;location;lat;lon;timestamp;pressure;altitude;pressure_sealevel;temperature;humidity
16355;BME280;8287;51.644;8.494;2023-11-21T00:02:03;99780.31;;;9.33;100.00
16355;BME280;8287;51.644;8.494;2023-11-21T00:04:29;99785.78;;;9.45;100.00
16355;BME280;8287;51.644;8.494;2023-11-21T00:06:56;99787.47;;;9.41;100.00
16355;BME280;8287;51.644;8.494;2023-11-21T00:09:23;99789.50;;;9.36;100.00
16355;BME280;8287;51.644;8.494;2023-11-21T00:11:49;99775.31;;;9.23;100.00
16355;BME280;8287;51.644;8.494;2023-11-21T00:14:16;99783.09;;;9.28;100.00
16355;BME280;8287;51.644;8.494;2023-11-21T00:16:44;99787.44;;;9.24;100.00
16355;BME280;8287;51.644;8.494;2023-11-21T00:19:11;99786.50;;;9.20;100.00
16355;BME280;8287;51.644;8.494;2023-11-21T00:21:38;99789.19;;;9.37;100.00
16355;BME280;8287;51.644;8.494;2023-11-21T00:24:05;99785.16;;;9.40;100.00
16355;BME280;8287;51.644;8.494;2023-11-21T00:26:32;99784.03;;;9.32;100.00
16355;BME280;8287;51.644;8.494;2023-11-21T00:29:02;99789.78;;;9.34;100.00
16355;BME280;8287;51.644;8.494;2023-11-21T00:31:28;99790.28;;;9.36;100.00
16355;BME280;8287;51.644;8.494;2023-11-21T00:33:57;99791.84;;;9.37;100.00
16355;BME280;8287;51.644;8.494;2023-11-21T00:36:24;99794.94;;;9.39;100.00
16355;BME280;8287;51.644;8.494;2023-11-21T00:38:51;99802.88;;;9.31;100.00
16355;BME280;8287;51.644;8.494;2023-11-21T00:41:17;99797.09;;;9.29;100.00
16355;BME280;8287;51.644;8.494;2023-11-21T00:43:44;99802.06;;;9.30;100.00
16355;BME280;8287;51.644;8.494;2023-11-21T00:46:11;99801.28;;;9.30;100.00
16355;BME280;8287;51.644;8.494;2023-11-21T00:48:38;99791.78;;;9.20;100.00
16355;BME280;8287;51.644;8.494;2023-11-21T00:51:06;99805.59;;;9.17;100.00
16355;BME280;8287;51.644;8.494;2023-11-21T00:53:33;99811.22;;;9.16;100.00
16355;BME280;8287;51.644;8.494;2023-11-21T00:55:59;99806.69;;;9.16;100.00
16355;BME280;8287;51.644;8.494;2023-11-21T00:58:26;99816.84;;;9.23;100.00
16355;BME280;8287;51.644;8.494;2023-11-21T01:00:53;99811.72;;;9.26;100.00
16355;BME280;8287;51.644;8.494;2023-11-21T01:03:19;99816.84;;;9.31;100.00
16355;BME280;8287;51.644;8.494;2023-11-21T01:05:47;99821.66;;;9.29;100.00
16355;BME280;8287;51.644;8.494;2023-11-21T01:08:16;99814.03;;;9.19;100.00
16355;BME280;8287;51.644;8.494;2023-11-21T01:10:42;99819.09;;;9.07;100.00
16355;BME280;8287;51.644;8.494;2023-11-21T01:13:10;99829.22;;;9.05;100.00
16355;BME280;8287;51.644;8.494;2023-11-21T01:15:37;99831.72;;;9.10;100.00
16355;BME280;8287;51.644;8.494;2023-11-21T01:18:04;99832.66;;;9.14;100.00
16355;BME280;8287;51.644;8.494;2023-11-21T01:20:31;99834.69;;;9.17;100.00
16355;BME280;8287;51.644;8.494;2023-11-21T01:22:57;99833.16;;;9.25;100.00
16355;BME280;8287;51.644;8.494;2023-11-21T01:25:26;99835.97;;;9.28;100.00
16355;BME280;8287;51.644;8.494;2023-11-21T01:27:52;99828.63;;;9.25;100.00
16355;BME280;8287;51.644;8.494;2023-11-21T01:30:19;99846.09;;;9.26;100.00
16355;BME280;8287;51.644;8.494;2023-11-21T01:32:47;99836.09;;;9.23;100.00
16355;BME280;8287;51.644;8.494;2023-11-21T01:35:14;99846.22;;;9.30;100.00
16355;BME280;8287;51.644;8.494;2023-11-21T01:37:40;99835.66;;;9.30;100.00
16355;BME280;8287;51.644;8.494;2023-11-21T01:40:08;99841.91;;;9.34;100.00
16355;BME280;8287;51.644;8.494;2023-11-21T01:42:40;99844.53;;;9.34;100.00
16355;BME280;8287;51.644;8.494;2023-11-21T01:45:07;99842.81;;;9.38;100.00
16355;BME280;8287;51.644;8.494;2023-11-21T01:47:35;99842.69;;;9.43;100.00
16355;BME280;8287;51.644;8.494;2023-11-21T01:50:03;99850.34;;;9.44;100.00
16355;BME280;8287;51.644;8.494;2023-11-21T01:52:31;99845.50;;;9.46;100.00
16355;BME280;8287;51.644;8.494;2023-11-21T01:54:58;99842.38;;;9.36;100.00
16355;BME280;8287;51.644;8.494;2023-11-21T01:57:25;99848.28;;;9.33;100.00
16355;BME280;8287;51.644;8.494;2023-11-21T01:59:54;99850.00;;;9.37;100.00
16355;BME280;8287;51.644;8.494;2023-11-21T02:02:20;99846.88;;;9.35;100.00
16355;BME280;8287;51.644;8.494;2023-11-21T02:04:47;99841.44;;;9.40;100.00
16355;BME280;8287;51.644;8.494;2023-11-21T02:07:13;99846.94;;;9.52;100.00
16355;BME280;8287;51.644;8.494;2023-11-21T02:09:40;99838.66;;;9.54;100.00
16355;BME280;8287;51.644;8.494;2023-11-21T02:12:08;99853.00;;;9.61;100.00
16355;BME280;8287;51.644;8.494;2023-11-21T02:14:36;99858.13;;;9.58;100.00
16355;BME280;8287;51.644;8.494;2023-11-21T02:17:04;99855.81;;;9.65;100.00
16355;BME280;8287;51.644;8.494;2023-11-21T02:19:31;99847.56;;;9.66;100.00
16355;BME280;8287;51.644;8.494;2023-11-21T02:21:59;99855.53;;;9.74;100.00
16355;BME280;8287;51.644;8.494;2023-11-21T02:24:31;99858.31;;;9.78;100.00
16355;BME280;8287;51.644;8.494;2023-11-21T02:26:58;99855.81;;;9.73;100.00
16355;BME280;8287;51.644;8.494;2023-11-21T02:29:25;99860.97;;;9.78;100.00
16355;BME280;8287;51.644;8.494;2023-11-21T02:31:53;99857.69;;;9.81;100.00
16355;BME280;8287;51.644;8.494;2023-11-21T02:34:21;99864.56;;;9.90;100.00
16355;BME280;8287;51.644;8.494;2023-11-21T02:36:48;99868.94;;;9.95;100.00
16355;BME280;8287;51.644;8.494;2023-11-21T02:39:16;99859.28;;;9.90;100.00
16355;BME280;8287;51.644;8.494;2023-11-21T02:41:44;99862.53;;;9.96;100.00
16355;BME280;8287;51.644;8.494;2023-11-21T02:44:11;99867.66;;;10.01;100.00
16355;BME280;8287;51.644;8.494;2023-11-21T02:46:37;99869.84;;;9.99;100.00
16355;BME280;8287;51.644;8.494;2023-11-21T02:49:05;99875.78;;;10.04;100.00
16355;BME280;8287;51.644;8.494;2023-11-21T02:51:32;99862.38;;;10.01;100.00
16355;BME280;8287;51.644;8.494;2023-11-21T02:53:59;99871.75;;;10.07;100.00
16355;BME280;8287;51.644;8.494;2023-11-21T02:56:28;99872.84;;;10.06;100.00
16355;BME280;8287;51.644;8.494;2023-11-21T02:58:57;99869.25;;;10.10;100.00
16355;BME280;8287;51.644;8.494;2023-11-21T03:01:23;99882.81;;;10.09;100.00
16355;BME280;8287;51.644;8.494;2023-11-21T03:03:50;99878.00;;;10.11;100.00
16355;BME280;8287;51.644;8.494;2023-11-21T03:06:17;99877.50;;;10.09;100.00
16355;BME280;8287;51.644;8.494;2023-11-21T03:08:44;99878.75;;;10.11;100.00
16355;BME280;8287;51.644;8.494;2023-11-21T03:11:11;99891.22;;;10.19;100.00
16355;BME280;8287;51.644;8.494;2023-11-21T03:13:38;99891.53;;;10.18;100.00
16355;BME280;8287;51.644;8.494;2023-11-21T03:16:07;99890.13;;;10.20;100.00
16355;BME280;8287;51.644;8.494;2023-11-21T03:18:34;99896.53;;;10.28;100.00
16355;BME280;8287;51.644;8.494;2023-11-21T03:21:01;99897.91;;;10.34;100.00
16355;BME280;8287;51.644;8.494;2023-11-21T03:23:28;99897.31;;;10.37;100.00
16355;BME280;8287;51.644;8.494;2023-11-21T03:25:54;99895.75;;;10.36;100.00
16355;BME280;8287;51.644;8.494;2023-11-21T03:28:21;99896.97;;;10.38;100.00
16355;BME280;8287;51.644;8.494;2023-11-21T03:30:48;99892.16;;;10.32;100.00
16355;BME280;8287;51.644;8.494;2023-11-21T03:33:16;99902.75;;;10.32;100.00
16355;BME280;8287;51.644;8.494;2023-11-21T03:35:43;99905.38;;;10.32;100.00
16355;BME280;8287;51.644;8.494;2023-11-21T03:38:10;99905.25;;;10.37;100.00
16355;BME280;8287;51.644;8.494;2023-11-21T03:40:37;99909.91;;;10.40;100.00
16355;BME280;8287;51.644;8.494;2023-11-21T03:43:04;99912.69;;;10.35;100.00
16355;BME280;8287;51.644;8.494;2023-11-21T03:45:31;99913.50;;;10.35;100.00
16355;BME280;8287;51.644;8.494;2023-11-21T03:47:58;99918.66;;;10.40;100.00
16355;BME280;8287;51.644;8.494;2023-11-21T03:50:28;99918.66;;;10.40;100.00
16355;BME280;8287;51.644;8.494;2023-11-21T03:52:55;99920.66;;;10.43;100.00
16355;BME280;8287;51.644;8.494;2023-11-21T03:55:22;99938.13;;;10.53;100.00
16355;BME280;8287;51.644;8.494;2023-11-21T03:57:49;99934.03;;;10.55;100.00
16355;BME280;8287;51.644;8.494;2023-11-21T04:00:17;99945.91;;;10.49;100.00
16355;BME280;8287;51.644;8.494;2023-11-21T04:02:46;99935.75;;;10.43;100.00
16355;BME280;8287;51.644;8.494;2023-11-21T04:05:12;99937.78;;;10.37;100.00
16355;BME280;8287;51.644;8.494;2023-11-21T04:07:39;99938.59;;;10.38;100.00
16355;BME280;8287;51.644;8.494;2023-11-21T04:10:07;99934.84;;;10.39;100.00
16355;BME280;8287;51.644;8.494;2023-11-21T04:12:35;99945.44;;;10.39;100.00
16355;BME280;8287;51.644;8.494;2023-11-21T04:15:01;99948.38;;;10.37;100.00
16355;BME280;8287;51.644;8.494;2023-11-21T04:17:28;99943.88;;;10.38;100.00
16355;BME280;8287;51.644;8.494;2023-11-21T04:19:54;99954.47;;;10.38;100.00
16355;BME280;8287;51.644;8.494;2023-11-21T04:22:21;99954.94;;;10.40;100.00
16355;BME280;8287;51.644;8.494;2023-11-21T04:24:49;99958.03;;;10.42;100.00
16355;BME280;8287;51.644;8.494;2023-11-21T04:27:16;99950.25;;;10.37;100.00
16355;BME280;8287;51.644;8.494;2023-11-21T04:29:43;99961.31;;;10.39;100.00
16355;BME280;8287;51.644;8.494;2023-11-21T04:32:10;99963.34;;;10.42;100.00
16355;BME280;8287;51.644;8.494;2023-11-21T04:34:38;99957.75;;;10.43;100.00
16355;BME280;8287;51.644;8.494;2023-11-21T04:37:04;99980.47;;;10.44;100.00
16355;BME280;8287;51.644;8.494;2023-11-21T04:39:31;99971.63;;;10.40;100.00
16355;BME280;8287;51.644;8.494;2023-11-21T04:41:59;99976.59;;;10.33;100.00
16355;BME280;8287;51.644;8.494;2023-11-21T04:44:26;99967.84;;;10.33;100.00
16355;BME280;8287;51.644;8.494;2023-11-21T04:46:52;99974.41;;;10.44;100.00
16355;BME280;8287;51.644;8.494;2023-11-21T04:49:19;99986.41;;;10.50;100.00
16355;BME280;8287;51.644;8.494;2023-11-21T04:51:46;99982.34;;;10.52;100.00
16355;BME280;8287;51.644;8.494;2023-11-21T04:54:12;99983.44;;;10.51;100.00
16355;BME280;8287;51.644;8.494;2023-11-21T04:56:39;99981.25;;;10.53;100.00
16355;BME280;8287;51.644;8.494;2023-11-21T04:59:07;99988.91;;;10.55;100.00
16355;BME280;8287;51.644;8.494;2023-11-21T05:01:34;99984.25;;;10.52;100.00
16355;BME280;8287;51.644;8.494;2023-11-21T05:04:01;99992.19;;;10.52;100.00
16355;BME280;8287;51.644;8.494;2023-11-21T05:06:28;99990.00;;;10.54;100.00
16355;BME280;8287;51.644;8.494;2023-11-21T05:08:55;99987.66;;;10.52;100.00
16355;BME280;8287;51.644;8.494;2023-11-21T05:11:25;99996.69;;;10.60;100.00
16355;BME280;8287;51.644;8.494;2023-11-21T05:13:51;99987.97;;;10.59;100.00
16355;BME280;8287;51.644;8.494;2023-11-21T05:16:22;99984.84;;;10.57;100.00
16355;BME280;8287;51.644;8.494;2023-11-21T05:18:48;99987.97;;;10.59;100.00
16355;BME280;8287;51.644;8.494;2023-11-21T05:21:16;99992.78;;;10.66;100.00
16355;BME280;8287;51.644;8.494;2023-11-21T05:23:42;99986.09;;;10.68;100.00
16355;BME280;8287;51.644;8.494;2023-11-21T05:26:09;99981.09;;;10.67;100.00
16355;BME280;8287;51.644;8.494;2023-11-21T05:28:35;99989.06;;;10.67;100.00
16355;BME280;8287;51.644;8.494;2023-11-21T05:31:02;99994.50;;;10.70;100.00
16355;BME280;8287;51.644;8.494;2023-11-21T05:33:30;100000.13;;;10.77;100.00
16355;BME280;8287;51.644;8.494;2023-11-21T05:35:58;100002.31;;;10.75;100.00
16355;BME280;8287;51.644;8.494;2023-11-21T05:38:25;99998.09;;;10.74;100.00
16355;BME280;8287;51.644;8.494;2023-11-21T05:40:51;99997.31;;;10.74;100.00
16355;BME280;8287;51.644;8.494;2023-11-21T05:43:18;100010.41;;;10.79;100.00
16355;BME280;8287;51.644;8.494;2023-11-21T05:45:45;100009.03;;;10.81;100.00
16355;BME280;8287;51.644;8.494;2023-11-21T05:48:11;100005.56;;;10.81;100.00
16355;BME280;8287;51.644;8.494;2023-11-21T05:50:39;100012.44;;;10.82;100.00
16355;BME280;8287;51.644;8.494;2023-11-21T05:53:06;100017.09;;;10.85;100.00
16355;BME280;8287;51.644;8.494;2023-11-21T05:55:34;100009.00;;;10.90;100.00
16355;BME280;8287;51.644;8.494;2023-11-21T05:58:01;100020.06;;;10.92;100.00
16355;BME280;8287;51.644;8.494;2023-11-21T06:00:28;100033.31;;;10.92;100.00
16355;BME280;8287;51.644;8.494;2023-11-21T06:02:54;100033.81;;;10.94;100.00
16355;BME280;8287;51.644;8.494;2023-11-21T06:05:23;100038.31;;;10.93;100.00
16355;BME280;8287;51.644;8.494;2023-11-21T06:07:52;100035.66;;;10.93;100.00
16355;BME280;8287;51.644;8.494;2023-11-21T06:10:20;100033.81;;;10.94;100.00
16355;BME280;8287;51.644;8.494;2023-11-21T06:12:46;100040.50;;;10.91;100.00
16355;BME280;8287;51.644;8.494;2023-11-21T06:15:13;100038.63;;;11.00;100.00
16355;BME280;8287;51.644;8.494;2023-11-21T06:17:41;100036.56;;;10.97;100.00
16355;BME280;8287;51.644;8.494;2023-11-21T06:20:09;100042.50;;;10.94;100.00
16355;BME280;8287;51.644;8.494;2023-11-21T06:22:41;100047.34;;;11.01;100.00
16355;BME280;8287;51.644;8.494;2023-11-21T06:25:10;100056.38;;;11.00;100.00
16355;BME280;8287;51.644;8.494;2023-11-21T06:27:39;100055.94;;;10.98;100.00
16355;BME280;8287;51.644;8.494;2023-11-21T06:30:07;100061.09;;;11.03;100.00
16355;BME280;8287;51.644;8.494;2023-11-21T06:32:35;100061.38;;;11.01;100.00
16355;BME280;8287;51.644;8.494;2023-11-21T06:35:02;100064.50;;;11.03;100.00
16355;BME280;8287;51.644;8.494;2023-11-21T06:37:30;100071.34;;;11.04;100.00
16355;BME280;8287;51.644;8.494;2023-11-21T06:39:57;100068.25;;;11.02;100.00
16355;BME280;8287;51.644;8.494;2023-11-21T06:42:26;100072.28;;;11.00;100.00
16355;BME280;8287;51.644;8.494;2023-11-21T06:44:54;100073.53;;;11.02;100.00
16355;BME280;8287;51.644;8.494;2023-11-21T06:47:22;100071.19;;;11.01;100.00
16355;BME280;8287;51.644;8.494;2023-11-21T06:49:50;100081.66;;;11.06;100.00
16355;BME280;8287;51.644;8.494;2023-11-21T06:52:17;100086.31;;;11.09;100.00
16355;BME280;8287;51.644;8.494;2023-11-21T06:54:44;100089.91;;;11.04;100.00
16355;BME280;8287;51.644;8.494;2023-11-21T06:57:10;100101.13;;;11.10;100.00
16355;BME280;8287;51.644;8.494;2023-11-21T06:59:38;100098.97;;;11.12;100.00
16355;BME280;8287;51.644;8.494;2023-11-21T07:02:06;100107.69;;;11.12;100.00
16355;BME280;8287;51.644;8.494;2023-11-21T07:04:32;100101.94;;;11.10;100.00
16355;BME280;8287;51.644;8.494;2023-11-21T07:06:59;100096.47;;;11.07;100.00
16355;BME280;8287;51.644;8.494;2023-11-21T07:09:26;100106.94;;;11.12;100.00
16355;BME280;8287;51.644;8.494;2023-11-21T07:11:53;100104.59;;;11.10;100.00
16355;BME280;8287;51.644;8.494;2023-11-21T07:14:20;100122.03;;;11.11;100.00
16355;BME280;8287;51.644;8.494;2023-11-21T07:16:48;100110.69;;;11.11;100.00
16355;BME280;8287;51.644;8.494;2023-11-21T07:19:16;100117.53;;;11.12;100.00
16355;BME280;8287;51.644;8.494;2023-11-21T07:21:43;100122.34;;;11.10;100.00
16355;BME280;8287;51.644;8.494;2023-11-21T07:24:09;100128.28;;;11.07;100.00
16355;BME280;8287;51.644;8.494;2023-11-21T07:26:37;100135.94;;;11.08;100.00
16355;BME280;8287;51.644;8.494;2023-11-21T07:29:04;100133.13;;;11.05;100.00
16355;BME280;8287;51.644;8.494;2023-11-21T07:31:31;100141.53;;;11.07;100.00
16355;BME280;8287;51.644;8.494;2023-11-21T07:34:02;100152.31;;;11.10;100.00
16355;BME280;8287;51.644;8.494;2023-11-21T07:36:29;100149.97;;;11.09;100.00
16355;BME280;8287;51.644;8.494;2023-11-21T07:38:57;100161.06;;;11.11;100.00
16355;BME280;8287;51.644;8.494;2023-11-21T07:41:24;100160.44;;;11.14;100.00
16355;BME280;8287;51.644;8.494;2023-11-21T07:43:50;100166.38;;;11.11;100.00
16355;BME280;8287;51.644;8.494;2023-11-21T07:46:18;100167.13;;;11.11;100.00
16355;BME280;8287;51.644;8.494;2023-11-21T07:48:45;100176.63;;;11.12;100.00
16355;BME280;8287;51.644;8.494;2023-11-21T07:51:13;100171.66;;;11.11;100.00
16355;BME280;8287;51.644;8.494;2023-11-21T07:53:40;100179.28;;;11.12;100.00
16355;BME280;8287;51.644;8.494;2023-11-21T07:56:08;100183.19;;;11.06;100.00
16355;BME280;8287;51.644;8.494;2023-11-21T07:58:35;100179.28;;;11.04;100.00
16355;BME280;8287;51.644;8.494;2023-11-21T08:01:03;100178.34;;;11.00;100.00
16355;BME280;8287;51.644;8.494;2023-11-21T08:03:30;100184.59;;;11.04;100.00
16355;BME280;8287;51.644;8.494;2023-11-21T08:05:59;100187.38;;;10.99;100.00
16355;BME280;8287;51.644;8.494;2023-11-21T08:08:33;100187.69;;;10.97;100.00
16355;BME280;8287;51.644;8.494;2023-11-21T08:10:59;100192.22;;;10.97;100.00
16355;BME280;8287;51.644;8.494;2023-11-21T08:13:27;100205.47;;;10.97;100.00
16355;BME280;8287;51.644;8.494;2023-11-21T08:15:56;100199.22;;;10.93;100.00
16355;BME280;8287;51.644;8.494;2023-11-21T08:18:27;100204.34;;;10.89;100.00
16355;BME280;8287;51.644;8.494;2023-11-21T08:20:54;100202.50;;;10.90;100.00
16355;BME280;8287;51.644;8.494;2023-11-21T08:23:21;100211.53;;;10.89;100.00
16355;BME280;8287;51.644;8.494;2023-11-21T08:25:52;100211.06;;;10.87;100.00
16355;BME280;8287;51.644;8.494;2023-11-21T08:28:19;100203.72;;;10.84;100.00
16355;BME280;8287;51.644;8.494;2023-11-21T08:30:47;100199.97;;;10.85;100.00
16355;BME280;8287;51.644;8.494;2023-11-21T08:33:14;100204.50;;;10.93;100.00
16355;BME280;8287;51.644;8.494;2023-11-21T08:35:43;100202.97;;;10.92;100.00
16355;BME280;8287;51.644;8.494;2023-11-21T08:38:10;100199.22;;;10.93;100.00
16355;BME280;8287;51.644;8.494;2023-11-21T08:40:37;100202.03;;;10.88;100.00
16355;BME280;8287;51.644;8.494;2023-11-21T08:43:06;100194.22;;;10.83;100.00
16355;BME280;8287;51.644;8.494;2023-11-21T08:45:33;100206.38;;;10.84;100.00
16355;BME280;8287;51.644;8.494;2023-11-21T08:48:00;100203.13;;;10.87;100.00
16355;BME280;8287;51.644;8.494;2023-11-21T08:50:27;100213.56;;;10.92;100.00
16355;BME280;8287;51.644;8.494;2023-11-21T08:52:53;100217.94;;;10.88;100.00
16355;BME280;8287;51.644;8.494;2023-11-21T08:55:21;100229.47;;;10.92;100.00
16355;BME280;8287;51.644;8.494;2023-11-21T08:57:47;100226.97;;;10.87;100.00
16355;BME280;8287;51.644;8.494;2023-11-21T09:00:16;100230.25;;;10.92;100.00
16355;BME280;8287;51.644;8.494;2023-11-21T09:02:44;100241.63;;;10.93;100.00
16355;BME280;8287;51.644;8.494;2023-11-21T09:05:13;100247.25;;;10.91;100.00
16355;BME280;8287;51.644;8.494;2023-11-21T09:07:41;100243.06;;;10.90;100.00
16355;BME280;8287;51.644;8.494;2023-11-21T09:10:08;100257.53;;;10.93;100.00
16355;BME280;8287;51.644;8.494;2023-11-21T09:12:36;100257.25;;;10.94;100.00
16355;BME280;8287;51.644;8.494;2023-11-21T09:15:04;100262.25;;;10.96;100.00
16355;BME280;8287;51.644;8.494;2023-11-21T09:17:33;100264.44;;;10.94;100.00
16355;BME280;8287;51.644;8.494;2023-11-21T09:20:00;100264.25;;;10.99;100.00
16355;BME280;8287;51.644;8.494;2023-11-21T09:22:29;100275.03;;;11.02;100.00
16355;BME280;8287;51.644;8.494;2023-11-21T09:24:57;100275.03;;;11.02;100.00
16355;BME280;8287;51.644;8.494;2023-11-21T09:27:24;100276.91;;;11.02;100.00
16355;BME280;8287;51.644;8.494;2023-11-21T09:29:52;100280.03;;;11.04;100.00
16355;BME280;8287;51.644;8.494;2023-11-21T09:32:19;100288.00;;;11.04;100.00
16355;BME280;8287;51.644;8.494;2023-11-21T09:34:48;100278.63;;;10.98;100.00
16355;BME280;8287;51.644;8.494;2023-11-21T09:37:15;100283.78;;;11.03;100.00
16355;BME280;8287;51.644;8.494;2023-11-21T09:39:42;100289.25;;;11.06;100.00
16355;BME280;8287;51.644;8.494;2023-11-21T09:42:11;100291.69;;;10.94;100.00
16355;BME280;8287;51.644;8.494;2023-11-21T09:44:45;100289.38;;;11.01;100.00
16355;BME280;8287;51.644;8.494;2023-11-21T09:47:15;100292.38;;;11.08;100.00
16355;BME280;8287;51.644;8.494;2023-11-21T09:49:48;100288.94;;;11.08;100.00
16355;BME280;8287;51.644;8.494;2023-11-21T09:52:22;100288.16;;;11.07;100.00
16355;BME280;8287;51.644;8.494;2023-11-21T09:54:52;100296.38;;;10.97;100.00
16355;BME280;8287;51.644;8.494;2023-11-21T09:57:20;100298.59;;;11.04;100.00
16355;BME280;8287;51.644;8.494;2023-11-21T09:59:49;100305.19;;;11.15;100.00
16355;BME280;8287;51.644;8.494;2023-11-21T10:02:17;100305.81;;;11.12;100.00
16355;BME280;8287;51.644;8.494;2023-11-21T10:04:47;100313.59;;;11.17;100.00
16355;BME280;8287;51.644;8.494;2023-11-21T10:07:17;100306.28;;;11.22;100.00
16355;BME280;8287;51.644;8.494;2023-11-21T10:09:46;100306.91;;;11.19;100.00
16355;BME280;8287;51.644;8.494;2023-11-21T10:12:14;100313.31;;;11.18;100.00
16355;BME280;8287;51.644;8.494;2023-11-21T10:14:42;100322.19;;;11.22;100.00
16355;BME280;8287;51.644;8.494;2023-11-21T10:17:12;100332.56;;;11.02;100.00
16355;BME280;8287;51.644;8.494;2023-11-21T10:19:39;100325.94;;;11.13;100.00
16355;BME280;8287;51.644;8.494;2023-11-21T10:22:08;100324.53;;;11.15;100.00
16355;BME280;8287;51.644;8.494;2023-11-21T10:24:35;100325.94;;;11.21;100.00
16355;BME280;8287;51.644;8.494;2023-11-21T10:27:03;100320.34;;;11.23;100.00
16355;BME280;8287;51.644;8.494;2023-11-21T10:29:30;100331.81;;;11.10;100.00
16355;BME280;8287;51.644;8.494;2023-11-21T10:32:01;100330.59;;;11.07;100.00
16355;BME280;8287;51.644;8.494;2023-11-21T10:34:28;100333.25;;;11.07;100.00
16355;BME280;8287;51.644;8.494;2023-11-21T10:36:55;100331.41;;;11.16;100.00
16355;BME280;8287;51.644;8.494;2023-11-21T10:39:25;100332.16;;;11.17;100.00
16355;BME280;8287;51.644;8.494;2023-11-21T10:41:56;100329.50;;;11.17;100.00
16355;BME280;8287;51.644;8.494;2023-11-21T10:44:23;100327.03;;;11.12;100.00
16355;BME280;8287;51.644;8.494;2023-11-21T10:46:51;100325.13;;;11.12;100.00
16355;BME280;8287;51.644;8.494;2023-11-21T10:49:21;100336.06;;;11.11;100.00
16355;BME280;8287;51.644;8.494;2023-11-21T10:51:50;100343.16;;;10.93;100.00
16355;BME280;8287;51.644;8.494;2023-11-21T10:54:19;100338.31;;;10.87;100.00
16355;BME280;8287;51.644;8.494;2023-11-21T10:56:48;100349.66;;;10.87;100.00
16355;BME280;8287;51.644;8.494;2023-11-21T10:59:17;100343.34;;;10.97;100.00
16355;BME280;8287;51.644;8.494;2023-11-21T11:01:45;100341.16;;;10.99;100.00
16355;BME280;8287;51.644;8.494;2023-11-21T11:04:13;100351.38;;;10.83;100.00
16355;BME280;8287;51.644;8.494;2023-11-21T11:06:43;100351.06;;;10.85;100.00
16355;BME280;8287;51.644;8.494;2023-11-21T11:09:13;100351.56;;;10.95;100.00
16355;BME280;8287;51.644;8.494;2023-11-21T11:11:41;100354.09;;;11.00;100.00
16355;BME280;8287;51.644;8.494;2023-11-21T11:14:12;100344.00;;;10.72;100.00
16355;BME280;8287;51.644;8.494;2023-11-21T11:16:40;100353.78;;;11.02;100.00
16355;BME280;8287;51.644;8.494;2023-11-21T11:19:08;100362.19;;;10.95;100.00
16355;BME280;8287;51.644;8.494;2023-11-21T11:21:43;100363.31;;;11.03;100.00
16355;BME280;8287;51.644;8.494;2023-11-21T11:24:27;100370.34;;;10.77;100.00
16355;BME280;8287;51.644;8.494;2023-11-21T11:27:03;100364.47;;;10.80;100.00
16355;BME280;8287;51.644;8.494;2023-11-21T11:29:42;100361.25;;;11.00;100.00
16355;BME280;8287;51.644;8.494;2023-11-21T11:32:24;100366.31;;;10.79;100.00
16355;BME280;8287;51.644;8.494;2023-11-21T11:34:58;100370.56;;;10.36;100.00
16355;BME280;8287;51.644;8.494;2023-11-21T11:37:28;100373.41;;;10.40;100.00
16355;BME280;8287;51.644;8.494;2023-11-21T11:39:57;100377.97;;;10.48;100.00
16355;BME280;8287;51.644;8.494;2023-11-21T11:42:26;100377.06;;;10.08;100.00
16355;BME280;8287;51.644;8.494;2023-11-21T11:45:04;100381.28;;;10.31;100.00
16355;BME280;8287;51.644;8.494;2023-11-21T11:47:43;100383.56;;;10.46;100.00
16355;BME280;8287;51.644;8.494;2023-11-21T11:50:12;100384.72;;;10.32;100.00
16355;BME280;8287;51.644;8.494;2023-11-21T11:52:43;100388.94;;;9.97;100.00
16355;BME280;8287;51.644;8.494;2023-11-21T11:55:21;100385.28;;;10.07;100.00
16355;BME280;8287;51.644;8.494;2023-11-21T11:57:49;100392.94;;;10.30;100.00
16355;BME280;8287;51.644;8.494;2023-11-21T12:00:33;100381.94;;;10.15;100.00
16355;BME280;8287;51.644;8.494;2023-11-21T12:03:04;100380.06;;;10.15;100.00
16355;BME280;8287;51.644;8.494;2023-11-21T12:05:32;100385.81;;;10.53;100.00
16355;BME280;8287;51.644;8.494;2023-11-21T12:08:02;100389.69;;;10.55;100.00
16355;BME280;8287;51.644;8.494;2023-11-21T12:10:31;100387.84;;;10.78;100.00
16355;BME280;8287;51.644;8.494;2023-11-21T12:13:00;100391.50;;;10.68;100.00
16355;BME280;8287;51.644;8.494;2023-11-21T12:15:28;100392.63;;;10.76;100.00
16355;BME280;8287;51.644;8.494;2023-11-21T12:17:57;100407.59;;;10.72;100.00
16355;BME280;8287;51.644;8.494;2023-11-21T12:20:25;100405.38;;;10.65;100.00
16355;BME280;8287;51.644;8.494;2023-11-21T12:22:53;100407.97;;;10.87;100.00
16355;BME280;8287;51.644;8.494;2023-11-21T12:25:21;100410.22;;;10.94;100.00
16355;BME280;8287;51.644;8.494;2023-11-21T12:27:49;100418.59;;;10.87;100.00
16355;BME280;8287;51.644;8.494;2023-11-21T12:30:17;100408.41;;;10.81;100.00
16355;BME280;8287;51.644;8.494;2023-11-21T12:32:48;100419.34;;;10.57;100.00
16355;BME280;8287;51.644;8.494;2023-11-21T12:35:15;100423.97;;;10.74;100.00
16355;BME280;8287;51.644;8.494;2023-11-21T12:37:45;100429.84;;;10.93;100.00
16355;BME280;8287;51.644;8.494;2023-11-21T12:40:12;100429.41;;;10.69;100.00
16355;BME280;8287;51.644;8.494;2023-11-21T12:42:42;100431.47;;;10.36;100.00
16355;BME280;8287;51.644;8.494;2023-11-21T12:45:12;100438.72;;;10.44;100.00
16355;BME280;8287;51.644;8.494;2023-11-21T12:47:48;100440.59;;;10.66;100.00
16355;BME280;8287;51.644;8.494;2023-11-21T12:50:15;100446.34;;;10.68;100.00
16355;BME280;8287;51.644;8.494;2023-11-21T12:52:43;100440.03;;;10.33;100.00
16355;BME280;8287;51.644;8.494;2023-11-21T12:55:16;100444.66;;;10.28;100.00
16355;BME280;8287;51.644;8.494;2023-11-21T12:57:44;100451.53;;;10.51;100.00
16355;BME280;8287;51.644;8.494;2023-11-21T13:00:12;100451.84;;;10.71;100.00
16355;BME280;8287;51.644;8.494;2023-11-21T13:02:54;100462.81;;;10.78;100.00